Time;durP1;ratioP1;P1;durP2;ratioP2;P2;SDS_P1;SDS_P2;PMS_P1;PMS_P2;Temp;Humidity;BMP_temperature;BMP_pressure;BME280_temperature;BME280_humidity;BME280_pressure;Samples;Min_cycle;Max_cycle;Signal;HPM_P1;HPM_P2
2022/09/29 00:01:32;;;;;;;16.45;6.43;;;10.30;99.90;;;;;;5029672;28;20578;-71
2022/09/29 00:03:58;;;;;;;11.80;6.75;;;10.30;99.90;;;;;;5029798;28;20037;-70
2022/09/29 00:06:27;;;;;;;12.85;5.88;;;10.40;99.90;;;;;;5029811;28;20037;-69
2022/09/29 00:08:52;;;;;;;12.88;7.07;;;10.30;99.90;;;;;;5029921;28;20055;-70
2022/09/29 00:11:19;;;;;;;16.17;6.65;;;10.40;99.90;;;;;;5029782;28;20204;-70
2022/09/29 00:13:46;;;;;;;11.68;6.45;;;10.40;99.90;;;;;;5029816;28;20060;-70
2022/09/29 00:16:12;;;;;;;13.23;6.07;;;10.40;99.90;;;;;;5029463;28;20029;-67
2022/09/29 00:18:39;;;;;;;19.00;7.97;;;10.30;99.90;;;;;;5028317;28;20037;-68
2022/09/29 00:21:18;;;;;;;12.90;6.63;;;10.30;99.90;;;;;;5029658;28;20036;-68
2022/09/29 00:23:44;;;;;;;13.95;6.18;;;10.30;99.90;;;;;;5028207;28;20021;-70
2022/09/29 00:26:10;;;;;;;10.02;5.18;;;10.30;99.90;;;;;;5029511;28;20029;-69
2022/09/29 00:28:37;;;;;;;11.40;6.22;;;10.20;99.90;;;;;;5028003;28;20021;-69
2022/09/29 00:31:07;;;;;;;15.10;6.53;;;10.20;99.90;;;;;;5029608;28;20033;-70
2022/09/29 00:33:35;;;;;;;12.23;6.38;;;10.20;99.90;;;;;;5029484;28;20025;-69
2022/09/29 00:36:12;;;;;;;19.08;7.85;;;10.20;99.90;;;;;;5029576;28;20022;-70
2022/09/29 00:38:38;;;;;;;13.68;7.55;;;10.20;99.90;;;;;;5029411;28;20030;-71
2022/09/29 00:41:05;;;;;;;12.23;7.47;;;10.20;99.90;;;;;;5029585;28;20029;-68
2022/09/29 00:43:52;;;;;;;19.77;7.95;;;10.20;99.90;;;;;;5029332;28;20029;-68
2022/09/29 00:46:31;;;;;;;16.23;8.65;;;10.20;99.90;;;;;;5028026;28;20074;-68
2022/09/29 00:49:02;;;;;;;25.42;11.82;;;10.20;99.90;;;;;;5032916;28;20067;-69
2022/09/29 00:51:30;;;;;;;28.52;13.02;;;10.20;99.90;;;;;;5031991;28;20028;-70
2022/09/29 00:53:57;;;;;;;24.23;11.52;;;10.20;99.90;;;;;;5015287;28;20505;-71
2022/09/29 00:56:23;;;;;;;;;;;10.20;99.90;;;;;;5032067;28;20057;-70
2022/09/29 00:59:01;;;;;;;16.80;9.27;;;10.30;99.90;;;;;;5032855;28;19913;-69
2022/09/29 01:01:30;;;;;;;12.98;8.13;;;10.30;99.90;;;;;;5031615;28;20036;-69
2022/09/29 01:04:02;;;;;;;16.58;8.30;;;10.30;99.90;;;;;;5032713;28;20468;-71
2022/09/29 01:06:36;;;;;;;15.45;8.15;;;10.30;99.90;;;;;;5031665;28;20029;-71
2022/09/29 01:09:09;;;;;;;20.95;8.38;;;10.30;99.90;;;;;;5033105;28;20026;-70
2022/09/29 01:11:35;;;;;;;16.02;8.45;;;10.20;99.90;;;;;;5032985;28;20070;-69
2022/09/29 01:14:05;;;;;;;14.98;9.02;;;10.20;99.90;;;;;;5032615;28;20029;-68
2022/09/29 01:16:33;;;;;;;18.80;9.13;;;10.20;99.90;;;;;;5032661;28;20021;-69
2022/09/29 01:19:01;;;;;;;17.35;7.70;;;10.20;99.90;;;;;;5032629;28;20038;-69
2022/09/29 01:21:33;;;;;;;13.55;6.78;;;10.20;99.90;;;;;;5032626;28;20061;-68
2022/09/29 01:24:31;;;;;;;11.82;7.05;;;10.10;99.90;;;;;;5032628;28;20026;-69
2022/09/29 01:27:13;;;;;;;11.68;6.00;;;10.10;99.90;;;;;;5032567;28;20056;-69
2022/09/29 01:29:50;;;;;;;12.52;6.25;;;10.10;99.90;;;;;;5032435;28;20021;-69
2022/09/29 01:32:16;;;;;;;12.20;6.32;;;10.10;99.90;;;;;;5032366;28;20590;-68
2022/09/29 01:34:50;;;;;;;12.77;6.15;;;10.00;99.90;;;;;;5032446;28;20065;-68
2022/09/29 01:37:30;;;;;;;12.85;6.32;;;10.10;99.90;;;;;;5032318;28;20034;-68
2022/09/29 01:40:12;;;;;;;11.45;5.57;;;10.20;99.90;;;;;;5032186;28;20091;-69
2022/09/29 01:43:15;;;;;;;11.50;5.78;;;10.10;99.90;;;;;;5032298;28;20026;-68
2022/09/29 01:45:46;;;;;;;13.80;6.75;;;10.10;99.90;;;;;;4997680;28;20068;-68
2022/09/29 01:48:23;;;;;;;10.90;6.60;;;10.20;99.90;;;;;;5031494;28;20017;-69
2022/09/29 01:50:55;;;;;;;13.15;7.25;;;10.20;99.90;;;;;;5031459;28;20159;-68
2022/09/29 01:53:34;;;;;;;16.77;8.50;;;10.20;99.90;;;;;;5032228;28;20029;-69
2022/09/29 01:56:10;;;;;;;19.10;8.55;;;10.20;99.90;;;;;;5041159;28;20676;-68
2022/09/29 01:58:53;;;;;;;15.18;7.15;;;10.20;99.90;;;;;;5051463;28;20492;-72
2022/09/29 02:01:22;;;;;;;13.27;6.57;;;10.20;99.90;;;;;;5052111;28;20067;-70
2022/09/29 02:03:56;;;;;;;13.60;7.43;;;10.30;99.90;;;;;;5051808;28;20028;-68
2022/09/29 02:06:36;;;;;;;11.50;6.25;;;10.30;99.90;;;;;;5051991;28;20040;-70
2022/09/29 02:09:08;;;;;;;24.27;8.73;;;10.30;99.90;;;;;;5051954;28;20374;-70
2022/09/29 02:11:39;;;;;;;15.45;7.70;;;10.30;99.90;;;;;;5051845;28;20029;-67
2022/09/29 02:14:19;;;;;;;17.25;9.32;;;10.20;99.90;;;;;;5051643;28;20024;-70
2022/09/29 02:16:54;;;;;;;14.95;8.23;;;10.20;99.90;;;;;;5051729;28;20100;-71
2022/09/29 02:19:26;;;;;;;17.77;7.72;;;10.20;99.90;;;;;;5051672;28;20052;-70
2022/09/29 02:21:53;;;;;;;23.55;9.57;;;10.20;99.90;;;;;;5051545;28;20131;-72
2022/09/29 02:24:20;;;;;;;13.32;7.47;;;10.30;99.90;;;;;;5051640;28;20599;-70
2022/09/29 02:26:46;;;;;;;16.20;8.07;;;10.30;99.90;;;;;;5051807;28;20116;-68
2022/09/29 02:29:13;;;;;;;13.40;7.35;;;10.30;99.90;;;;;;5051473;28;20112;-67
2022/09/29 02:31:39;;;;;;;13.52;8.27;;;10.30;99.90;;;;;;5051539;28;20021;-67
2022/09/29 02:34:09;;;;;;;14.95;7.40;;;10.20;99.90;;;;;;5051236;28;20053;-70
2022/09/29 02:37:10;;;;;;;12.68;7.03;;;10.20;99.90;;;;;;5051374;28;20021;-70
2022/09/29 02:39:54;;;;;;;16.25;7.78;;;10.20;99.90;;;;;;5006626;28;20077;-68
2022/09/29 02:42:22;;;;;;;11.63;7.22;;;10.10;99.90;;;;;;5051417;28;20384;-68
2022/09/29 02:45:07;;;;;;;15.15;8.10;;;10.10;99.90;;;;;;5051196;28;20049;-68
2022/09/29 02:47:54;;;;;;;17.65;8.98;;;10.10;99.90;;;;;;5051139;28;20032;-67
2022/09/29 02:50:51;;;;;;;15.00;8.90;;;10.10;99.90;;;;;;5032900;28;20497;-70
2022/09/29 02:53:25;;;;;;;11.30;8.15;;;10.10;99.90;;;;;;5051055;28;20578;-69
2022/09/29 02:56:12;;;;;;;16.38;9.27;;;10.10;99.90;;;;;;5050880;28;20045;-72
2022/09/29 02:58:53;;;;;;;17.58;8.77;;;10.20;99.90;;;;;;5051030;28;20021;-69
2022/09/29 03:01:18;;;;;;;14.35;8.68;;;10.20;99.90;;;;;;5050949;28;20098;-69
2022/09/29 03:03:44;;;;;;;16.98;8.50;;;10.20;99.90;;;;;;5032816;28;20059;-68
2022/09/29 03:06:11;;;;;;;15.40;8.88;;;10.30;99.90;;;;;;5050565;28;20035;-71
2022/09/29 03:08:37;;;;;;;14.98;8.93;;;10.20;99.90;;;;;;5050746;28;20033;-65
2022/09/29 03:11:02;;;;;;;15.95;9.25;;;10.20;99.90;;;;;;5050741;28;20069;-71
2022/09/29 03:13:28;;;;;;;19.92;10.75;;;10.20;99.90;;;;;;5050883;28;20078;-69
2022/09/29 03:15:54;;;;;;;19.25;11.48;;;10.20;99.90;;;;;;5050748;28;20095;-65
2022/09/29 03:18:22;;;;;;;22.90;11.85;;;10.10;99.90;;;;;;5050903;28;20024;-68
2022/09/29 03:20:48;;;;;;;17.27;11.18;;;10.20;99.90;;;;;;5050339;28;20487;-66
2022/09/29 03:23:14;;;;;;;23.02;11.27;;;10.20;99.90;;;;;;5050443;28;20021;-70
2022/09/29 03:25:40;;;;;;;19.50;10.40;;;10.10;99.90;;;;;;5050347;28;20025;-69
2022/09/29 03:28:06;;;;;;;17.92;10.65;;;10.10;99.90;;;;;;5050448;28;20032;-68
2022/09/29 03:30:32;;;;;;;18.73;10.68;;;10.00;99.90;;;;;;5050265;28;20025;-68
2022/09/29 03:32:58;;;;;;;17.58;9.77;;;9.90;99.90;;;;;;5050336;28;20025;-66
2022/09/29 03:35:23;;;;;;;18.20;10.30;;;9.80;99.90;;;;;;5050368;28;20025;-65
2022/09/29 03:37:49;;;;;;;16.60;9.70;;;9.80;99.90;;;;;;5050185;28;20430;-68
2022/09/29 03:40:14;;;;;;;19.88;8.35;;;9.80;99.90;;;;;;5049990;28;20083;-65
2022/09/29 03:42:40;;;;;;;22.55;10.38;;;9.80;99.90;;;;;;5050160;28;20476;-66
2022/09/29 03:45:06;;;;;;;14.10;8.80;;;9.80;99.90;;;;;;5049910;28;20377;-67
2022/09/29 03:47:32;;;;;;;16.75;9.05;;;9.70;99.90;;;;;;5049840;28;20029;-67
2022/09/29 03:49:58;;;;;;;14.35;8.88;;;9.70;99.90;;;;;;5049791;28;20037;-69
2022/09/29 03:52:23;;;;;;;17.67;9.73;;;9.70;99.90;;;;;;5049959;28;20075;-67
2022/09/29 03:54:49;;;;;;;20.30;9.52;;;9.70;99.90;;;;;;5049758;28;20136;-67
2022/09/29 03:57:14;;;;;;;16.10;9.13;;;9.80;99.90;;;;;;5049731;28;20049;-68
2022/09/29 03:59:40;;;;;;;13.85;8.63;;;9.80;99.90;;;;;;5032054;28;20048;-64
2022/09/29 04:02:06;;;;;;;15.45;9.25;;;9.90;99.90;;;;;;5031858;28;20100;-67
2022/09/29 04:04:31;;;;;;;17.85;9.65;;;9.90;99.90;;;;;;5049721;28;20052;-68
2022/09/29 04:06:57;;;;;;;14.85;9.23;;;9.90;99.90;;;;;;5049689;28;20035;-65
2022/09/29 04:09:23;;;;;;;16.98;9.70;;;9.90;99.90;;;;;;5031626;28;20071;-70
2022/09/29 04:11:48;;;;;;;15.20;7.97;;;9.90;99.90;;;;;;5049550;28;20552;-65
2022/09/29 04:14:14;;;;;;;17.55;8.88;;;9.90;99.90;;;;;;5031859;28;20055;-66
2022/09/29 04:16:39;;;;;;;16.90;9.60;;;10.00;99.90;;;;;;5049636;28;20024;-69
2022/09/29 04:19:05;;;;;;;24.02;10.43;;;10.00;99.90;;;;;;5049273;28;20481;-67
2022/09/29 04:21:31;;;;;;;15.55;9.30;;;10.00;99.90;;;;;;5049451;28;20041;-66
2022/09/29 04:23:56;;;;;;;17.00;9.55;;;10.00;99.90;;;;;;5049006;28;20536;-67
2022/09/29 04:26:22;;;;;;;18.48;9.57;;;10.10;99.90;;;;;;5031664;28;20538;-68
2022/09/29 04:28:48;;;;;;;18.17;10.35;;;10.10;99.90;;;;;;5049692;28;20025;-71
2022/09/29 04:31:14;;;;;;;17.20;9.35;;;10.00;99.90;;;;;;5049575;28;20029;-69
2022/09/29 04:33:40;;;;;;;14.70;9.10;;;10.00;99.90;;;;;;5049637;28;20026;-67
2022/09/29 04:36:06;;;;;;;16.40;9.43;;;10.00;99.90;;;;;;5049508;28;20100;-67
2022/09/29 04:38:32;;;;;;;15.45;9.55;;;10.00;99.90;;;;;;5049343;28;20040;-69
2022/09/29 04:40:58;;;;;;;19.95;9.43;;;10.00;99.90;;;;;;5049534;28;20028;-67
2022/09/29 04:43:24;;;;;;;19.75;9.75;;;10.00;99.90;;;;;;5049478;28;20013;-70
2022/09/29 04:45:49;;;;;;;18.25;10.05;;;10.00;99.90;;;;;;5049713;28;20021;-66
2022/09/29 04:48:15;;;;;;;15.43;8.88;;;10.00;99.90;;;;;;5049409;28;20044;-68
2022/09/29 04:50:41;;;;;;;16.35;9.75;;;10.00;99.90;;;;;;5049214;28;20441;-68
2022/09/29 04:53:09;;;;;;;21.10;11.73;;;10.00;99.90;;;;;;5049349;28;20025;-71
2022/09/29 04:55:37;;;;;;;24.52;8.85;;;10.00;99.90;;;;;;5048952;28;20048;-68
2022/09/29 04:58:03;;;;;;;19.85;9.07;;;10.00;99.90;;;;;;5049526;28;20056;-69
2022/09/29 05:00:30;;;;;;;15.30;8.35;;;9.90;99.90;;;;;;5049212;28;20033;-67
2022/09/29 05:02:56;;;;;;;18.90;9.10;;;9.80;99.90;;;;;;5049109;28;20107;-70
2022/09/29 05:05:22;;;;;;;14.45;8.63;;;9.80;99.90;;;;;;5049129;28;20111;-69
2022/09/29 05:07:48;;;;;;;17.05;9.35;;;9.70;99.90;;;;;;5049370;28;20079;-68
2022/09/29 05:10:14;;;;;;;13.30;8.57;;;9.70;99.90;;;;;;5049096;28;20460;-69
2022/09/29 05:12:39;;;;;;;13.70;8.55;;;9.80;99.90;;;;;;5031357;28;20033;-70
2022/09/29 05:15:05;;;;;;;14.40;8.02;;;9.80;99.90;;;;;;5048932;28;20021;-69
2022/09/29 05:17:31;;;;;;;15.48;9.77;;;9.80;99.90;;;;;;5049001;28;20029;-71
2022/09/29 05:19:57;;;;;;;13.43;8.45;;;9.80;99.90;;;;;;5048984;28;20036;-67
2022/09/29 05:22:23;;;;;;;15.90;9.65;;;9.80;99.90;;;;;;5048870;28;20136;-69
2022/09/29 05:24:50;;;;;;;15.60;9.13;;;9.80;99.90;;;;;;5031048;28;20025;-68
2022/09/29 05:27:16;;;;;;;15.68;8.57;;;9.80;99.90;;;;;;5049036;28;20117;-69
2022/09/29 05:29:42;;;;;;;17.27;9.82;;;9.90;99.90;;;;;;5048943;28;20112;-65
2022/09/29 05:32:07;;;;;;;16.00;8.93;;;9.90;99.90;;;;;;5048966;28;20036;-68
2022/09/29 05:34:33;;;;;;;13.88;9.27;;;9.90;99.90;;;;;;5015565;28;20033;-65
2022/09/29 05:36:59;;;;;;;20.33;9.88;;;9.90;99.90;;;;;;5051910;28;20017;-67
2022/09/29 05:39:24;;;;;;;17.83;9.98;;;9.90;99.90;;;;;;5033916;28;20037;-67
2022/09/29 05:41:51;;;;;;;15.50;9.10;;;10.00;99.90;;;;;;5051188;28;20048;-67
2022/09/29 05:44:16;;;;;;;16.60;9.43;;;10.10;99.90;;;;;;5052253;28;20448;-68
2022/09/29 05:46:42;;;;;;;17.27;9.27;;;10.10;99.90;;;;;;5052249;28;20651;-65
2022/09/29 05:49:09;;;;;;;18.40;8.98;;;10.20;99.90;;;;;;5051908;28;20025;-68
2022/09/29 05:51:35;;;;;;;20.25;10.07;;;10.20;99.90;;;;;;5051863;28;20480;-69
2022/09/29 05:54:01;;;;;;;20.95;12.70;;;10.20;99.90;;;;;;5051989;28;20044;-68
2022/09/29 05:56:27;;;;;;;20.83;12.75;;;10.30;99.90;;;;;;5052017;28;20045;-67
2022/09/29 05:58:54;;;;;;;21.95;14.05;;;10.30;99.90;;;;;;5039104;28;20575;-66
2022/09/29 06:01:22;;;;;;;22.50;12.80;;;10.30;99.90;;;;;;5050812;28;20035;-69
2022/09/29 06:03:50;;;;;;;16.60;10.23;;;10.20;99.90;;;;;;5050635;28;20025;-66
2022/09/29 06:06:18;;;;;;;17.92;11.48;;;10.20;99.90;;;;;;5050530;28;20021;-69
2022/09/29 06:08:45;;;;;;;15.88;10.40;;;10.20;99.90;;;;;;5050991;28;20110;-68
2022/09/29 06:11:17;;;;;;;18.08;10.27;;;10.20;99.90;;;;;;5050630;28;20025;-67
2022/09/29 06:13:45;;;;;;;22.10;12.65;;;10.20;99.90;;;;;;5048175;28;20033;-68
2022/09/29 06:16:11;;;;;;;16.42;11.40;;;10.20;99.90;;;;;;5051859;28;20025;-68
2022/09/29 06:18:38;;;;;;;21.85;13.13;;;10.30;99.90;;;;;;5051437;28;20391;-67
2022/09/29 06:21:09;;;;;;;21.98;12.50;;;10.30;99.90;;;;;;5033644;28;20060;-67
2022/09/29 06:23:34;;;;;;;19.63;12.15;;;10.30;99.90;;;;;;5051384;28;20098;-67
2022/09/29 06:26:03;;;;;;;21.88;13.52;;;10.40;99.90;;;;;;5050711;28;20059;-68
2022/09/29 06:28:29;;;;;;;27.10;16.67;;;10.50;99.90;;;;;;5050637;28;20099;-66
2022/09/29 06:31:00;;;;;;;27.73;18.70;;;10.50;99.90;;;;;;5050952;28;20099;-67
2022/09/29 06:33:27;;;;;;;27.35;17.27;;;10.60;99.90;;;;;;5048459;28;20028;-67
2022/09/29 06:38:36;;;;;;;26.88;17.75;;;10.70;99.90;;;;;;5047533;28;20403;-70
2022/09/29 06:41:02;;;;;;;25.33;16.60;;;10.80;99.90;;;;;;5050591;28;20460;-68
2022/09/29 06:43:28;;;;;;;26.98;19.13;;;10.80;99.90;;;;;;5031866;28;20029;-68
2022/09/29 06:45:53;;;;;;;26.48;17.60;;;10.90;99.90;;;;;;5050893;28;20029;-68
2022/09/29 06:48:19;;;;;;;27.80;17.35;;;10.90;99.90;;;;;;5049826;28;20491;-70
2022/09/29 06:50:45;;;;;;;37.78;19.60;;;11.00;99.90;;;;;;5050709;28;20040;-69
2022/09/29 06:53:10;;;;;;;34.85;19.75;;;11.10;99.90;;;;;;5050635;28;20024;-66
2022/09/29 06:55:36;;;;;;;31.30;18.55;;;11.10;99.90;;;;;;5050472;28;20052;-71
2022/09/29 06:58:02;;;;;;;28.90;18.23;;;11.20;99.90;;;;;;5050660;28;20033;-68
2022/09/29 07:00:27;;;;;;;26.58;18.02;;;11.20;99.90;;;;;;5050039;28;20522;-67
2022/09/29 07:02:53;;;;;;;27.40;18.40;;;11.30;99.90;;;;;;5036304;28;20044;-70
2022/09/29 07:05:19;;;;;;;23.52;16.35;;;11.30;99.90;;;;;;5032920;28;20445;-68
2022/09/29 07:07:47;;;;;;;27.05;17.70;;;11.30;99.90;;;;;;5050618;28;20060;-70
2022/09/29 07:10:14;;;;;;;24.73;17.00;;;11.30;99.90;;;;;;5047728;28;20036;-66
2022/09/29 07:12:40;;;;;;;22.30;16.92;;;11.40;99.90;;;;;;5050010;28;20025;-69
2022/09/29 07:15:06;;;;;;;25.27;17.55;;;11.40;99.90;;;;;;5031827;28;20039;-66
2022/09/29 07:17:31;;;;;;;25.48;17.08;;;11.40;99.90;;;;;;5049847;28;20062;-66
2022/09/29 07:19:58;;;;;;;28.77;18.48;;;11.40;99.90;;;;;;5049314;28;20032;-65
2022/09/29 07:22:23;;;;;;;26.92;18.67;;;11.40;99.90;;;;;;5049345;28;20453;-66
2022/09/29 07:24:52;;;;;;;27.98;18.13;;;11.40;99.90;;;;;;5031137;28;20040;-70
2022/09/29 07:27:23;;;;;;;22.45;14.93;;;11.40;99.90;;;;;;5048418;28;20436;-68
2022/09/29 07:29:51;;;;;;;24.42;15.40;;;11.40;99.90;;;;;;5048590;28;20092;-69
2022/09/29 07:32:18;;;;;;;23.00;13.98;;;11.40;99.90;;;;;;5027978;28;20056;-67
2022/09/29 07:34:44;;;;;;;19.73;13.40;;;11.40;99.90;;;;;;5048464;28;20029;-67
2022/09/29 07:37:10;;;;;;;20.08;12.55;;;11.50;99.90;;;;;;5048528;28;21190;-68
2022/09/29 07:39:36;;;;;;;18.45;13.20;;;11.50;99.90;;;;;;5048376;28;20508;-66
2022/09/29 07:42:02;;;;;;;19.55;12.65;;;11.60;99.90;;;;;;5030551;28;20059;-67
2022/09/29 07:44:30;;;;;;;20.55;11.43;;;11.60;99.90;;;;;;5030508;28;20028;-67
2022/09/29 07:46:56;;;;;;;18.23;10.70;;;11.60;99.90;;;;;;5046334;28;20357;-69
2022/09/29 07:49:22;;;;;;;26.98;10.13;;;11.70;99.90;;;;;;5049500;28;20035;-66
2022/09/29 07:51:48;;;;;;;20.52;10.02;;;11.80;99.90;;;;;;5048906;28;20472;-66
2022/09/29 07:54:13;;;;;;;14.38;8.35;;;11.80;99.90;;;;;;5030448;28;20029;-66
2022/09/29 07:56:39;;;;;;;11.55;7.18;;;11.80;99.90;;;;;;5041260;28;20037;-69
2022/09/29 07:59:05;;;;;;;15.43;7.97;;;11.80;99.90;;;;;;5038845;28;20500;-66
2022/09/29 08:01:31;;;;;;;14.27;7.65;;;11.90;99.90;;;;;;5037670;28;20083;-67
2022/09/29 08:03:57;;;;;;;34.45;9.02;;;11.90;99.90;;;;;;5039413;28;20021;-66
2022/09/29 08:06:26;;;;;;;12.43;6.65;;;11.90;99.90;;;;;;5038715;28;20041;-66
2022/09/29 08:08:51;;;;;;;12.18;6.72;;;11.80;99.90;;;;;;5037020;28;20109;-64
2022/09/29 08:11:19;;;;;;;14.27;7.03;;;11.60;99.90;;;;;;5039420;28;20104;-65
2022/09/29 08:13:46;;;;;;;18.33;6.90;;;11.70;99.90;;;;;;5037458;28;20017;-65
2022/09/29 08:16:13;;;;;;;13.82;6.47;;;11.60;99.90;;;;;;5037341;28;20036;-64
2022/09/29 08:18:40;;;;;;;13.18;6.38;;;11.60;99.90;;;;;;5038947;28;20021;-67
2022/09/29 08:21:07;;;;;;;17.70;8.32;;;11.60;99.90;;;;;;5038900;28;20040;-63
2022/09/29 08:23:38;;;;;;;;;;;11.70;99.90;;;;;;5037251;28;20040;-65
2022/09/29 08:26:10;;;;;;;8.23;4.22;;;11.70;99.90;;;;;;5038199;28;20003;-64
2022/09/29 08:28:37;;;;;;;9.57;5.78;;;11.70;99.90;;;;;;5033592;28;20072;-64
2022/09/29 08:31:03;;;;;;;;;;;11.70;99.90;;;;;;5039019;28;20456;-65
2022/09/29 08:33:29;;;;;;;13.52;7.50;;;11.80;99.90;;;;;;5039542;28;20348;-64
2022/09/29 08:35:59;;;;;;;14.77;7.93;;;11.70;99.90;;;;;;5034913;28;20078;-68
2022/09/29 08:38:26;;;;;;;13.68;7.63;;;11.70;99.90;;;;;;5038030;28;20052;-68
2022/09/29 08:40:54;;;;;;;14.68;7.88;;;11.90;99.90;;;;;;5035611;28;20116;-69
2022/09/29 08:43:26;;;;;;;13.55;8.20;;;12.00;99.90;;;;;;5030691;28;20033;-65
2022/09/29 08:46:03;;;;;;;12.40;6.85;;;12.20;99.90;;;;;;5033072;28;20021;-69
2022/09/29 08:48:34;;;;;;;15.40;8.15;;;12.40;99.90;;;;;;5031979;28;20087;-64
2022/09/29 08:51:30;;;;;;;12.57;8.57;;;12.90;99.90;;;;;;5029162;28;20028;-66
2022/09/29 08:54:00;;;;;;;10.98;6.45;;;13.70;99.90;;;;;;5033025;28;20079;-67
2022/09/29 08:56:26;;;;;;;11.57;6.68;;;14.10;99.90;;;;;;5037696;28;20041;-68
2022/09/29 08:58:52;;;;;;;11.98;6.03;;;14.50;99.90;;;;;;5031532;28;20573;-67
2022/09/29 09:01:26;;;;;;;11.13;6.57;;;14.70;99.90;;;;;;5028182;28;20056;-64
2022/09/29 09:04:29;;;;;;;11.13;5.60;;;14.30;99.90;;;;;;5029005;28;20065;-66
2022/09/29 09:07:17;;;;;;;11.15;5.28;;;14.40;99.90;;;;;;5029494;28;20501;-68
2022/09/29 09:10:05;;;;;;;8.98;5.15;;;14.20;99.90;;;;;;5032226;28;20088;-68
2022/09/29 09:12:57;;;;;;;7.55;4.40;;;14.40;99.90;;;;;;5015170;28;20076;-66
2022/09/29 09:15:44;;;;;;;7.50;4.70;;;14.60;99.90;;;;;;5028064;28;20087;-66
2022/09/29 09:18:16;;;;;;;14.20;7.03;;;15.10;99.90;;;;;;5035997;28;20022;-62
2022/09/29 09:21:07;;;;;;;10.85;4.80;;;14.70;99.90;;;;;;5020496;28;20073;-65
2022/09/29 09:23:38;;;;;;;11.18;5.60;;;14.60;99.90;;;;;;5036439;28;20036;-63
2022/09/29 09:26:04;;;;;;;8.38;4.05;;;14.00;99.90;;;;;;5022057;28;20039;-65
2022/09/29 09:28:56;;;;;;;17.15;6.13;;;14.30;99.90;;;;;;5048000;28;20033;-62
2022/09/29 09:31:35;;;;;;;7.85;4.18;;;14.20;99.90;;;;;;5034305;28;20120;-64
2022/09/29 09:34:23;;;;;;;6.65;3.78;;;13.70;99.90;;;;;;5011223;28;20675;-62
2022/09/29 09:37:16;;;;;;;10.15;4.78;;;13.50;99.90;;;;;;5012319;28;20660;-61
2022/09/29 09:39:48;;;;;;;7.45;3.85;;;13.50;99.90;;;;;;5014736;28;20050;-61
2022/09/29 09:42:22;;;;;;;11.25;4.88;;;13.40;99.90;;;;;;5014669;28;20141;-61
2022/09/29 09:44:59;;;;;;;9.85;4.38;;;13.20;99.90;;;;;;5020659;28;20030;-62
2022/09/29 09:47:34;;;;;;;34.45;21.65;;;13.20;99.90;;;;;;5034014;28;20030;-64
2022/09/29 09:50:15;;;;;;;38.53;18.52;;;13.10;99.90;;;;;;5029892;28;20540;-61
2022/09/29 09:52:59;;;;;;;7.05;4.40;;;13.10;99.90;;;;;;5032164;28;20484;-61
2022/09/29 09:55:25;;;;;;;6.97;4.57;;;13.30;99.90;;;;;;5035752;28;20198;-62
2022/09/29 09:58:06;;;;;;;6.60;4.07;;;13.20;99.90;;;;;;5052043;28;20020;-61
2022/09/29 10:00:40;;;;;;;8.98;4.03;;;13.10;99.90;;;;;;5051381;28;20493;-61
2022/09/29 10:03:07;;;;;;;8.23;3.83;;;13.30;99.90;;;;;;5051777;28;20392;-61
2022/09/29 10:05:38;;;;;;;8.98;4.05;;;13.30;99.90;;;;;;5051929;28;20037;-61
2022/09/29 10:08:14;;;;;;;8.48;4.07;;;13.50;99.90;;;;;;5034013;28;20029;-66
2022/09/29 10:10:41;;;;;;;50.53;34.97;;;14.10;99.90;;;;;;5051876;28;20036;-61
2022/09/29 10:13:12;;;;;;;6.35;3.63;;;14.30;99.90;;;;;;5051812;28;20027;-62
2022/09/29 10:15:57;;;;;;;5.90;3.22;;;15.20;99.90;;;;;;5032983;28;20029;-61
2022/09/29 10:18:35;;;;;;;6.72;2.85;;;15.60;99.90;;;;;;5051804;28;20054;-64
2022/09/29 10:21:00;;;;;;;9.18;4.05;;;15.40;99.90;;;;;;5051067;28;20116;-61
2022/09/29 10:23:35;;;;;;;6.97;4.18;;;15.40;99.90;;;;;;5051712;28;20144;-63
2022/09/29 10:26:00;;;;;;;6.70;3.50;;;15.10;99.90;;;;;;5051661;28;20040;-64
2022/09/29 10:28:40;;;;;;;6.13;3.60;;;14.90;99.90;;;;;;5051041;28;20028;-61
2022/09/29 10:31:31;;;;;;;7.45;3.13;;;14.60;99.90;;;;;;5051447;28;20028;-62
2022/09/29 10:33:59;;;;;;;6.65;2.97;;;14.80;99.90;;;;;;5051497;28;20025;-62
2022/09/29 10:36:32;;;;;;;6.15;2.67;;;14.50;99.90;;;;;;5033810;28;20518;-63
2022/09/29 10:38:58;;;;;;;6.95;3.28;;;14.20;99.90;;;;;;5051194;28;20033;-63
2022/09/29 10:41:24;;;;;;;6.47;3.80;;;14.20;99.90;;;;;;5051361;28;20174;-62
2022/09/29 10:43:51;;;;;;;7.32;3.05;;;14.20;99.90;;;;;;5051129;28;20540;-61
2022/09/29 10:46:37;;;;;;;7.20;3.10;;;14.30;99.90;;;;;;5051259;28;20029;-66
2022/09/29 10:49:18;;;;;;;9.75;3.65;;;14.60;99.90;;;;;;5050571;28;20029;-62
2022/09/29 10:52:04;;;;;;;6.07;3.35;;;14.70;99.90;;;;;;5049089;28;20024;-63
2022/09/29 10:54:56;;;;;;;7.07;3.88;;;14.60;99.90;;;;;;5050151;28;20025;-64
2022/09/29 10:57:28;;;;;;;4.72;2.92;;;14.70;99.90;;;;;;5050645;28;20029;-62
2022/09/29 10:59:56;;;;;;;7.70;3.42;;;14.70;99.90;;;;;;5049039;28;20061;-64
2022/09/29 11:02:42;;;;;;;6.53;2.85;;;14.80;99.90;;;;;;5050771;28;20035;-62
2022/09/29 11:05:19;;;;;;;6.07;3.10;;;14.70;99.90;;;;;;5050629;28;20136;-62
2022/09/29 11:07:47;;;;;;;6.13;2.80;;;14.80;99.90;;;;;;5033064;28;20435;-60
2022/09/29 11:10:35;;;;;;;8.15;3.05;;;14.80;99.90;;;;;;5032609;28;20025;-61
2022/09/29 11:13:22;;;;;;;5.95;3.05;;;14.60;99.90;;;;;;5050690;28;20485;-60
2022/09/29 11:15:48;;;;;;;4.95;2.55;;;14.60;99.90;;;;;;5050868;28;20024;-62
2022/09/29 11:18:33;;;;;;;8.20;4.10;;;14.60;99.90;;;;;;5050656;28;20037;-62
2022/09/29 11:21:20;;;;;;;6.97;3.20;;;14.70;99.90;;;;;;5032786;28;20045;-63
2022/09/29 11:24:04;;;;;;;6.70;3.42;;;14.80;99.90;;;;;;5050751;28;20782;-63
2022/09/29 11:26:37;;;;;;;8.40;4.32;;;14.80;99.90;;;;;;5050515;28;20021;-63
2022/09/29 11:29:27;;;;;;;8.02;3.78;;;14.80;99.90;;;;;;5050059;28;20029;-62
2022/09/29 11:31:56;;;;;;;10.20;4.13;;;14.80;99.90;;;;;;5026305;28;20037;-62
2022/09/29 11:34:42;;;;;;;8.10;4.35;;;14.80;99.90;;;;;;5050220;28;20029;-63
2022/09/29 11:37:39;;;;;;;9.63;4.25;;;14.80;99.90;;;;;;5031389;28;20043;-61
2022/09/29 11:40:28;;;;;;;8.23;4.15;;;14.60;99.90;;;;;;5049418;28;20037;-61
2022/09/29 11:43:33;;;;;;;9.02;4.38;;;14.60;99.90;;;;;;5030402;28;20021;-61
2022/09/29 11:46:26;;;;;;;20.40;11.45;;;14.60;99.90;;;;;;5050003;28;20029;-63
2022/09/29 11:49:10;;;;;;;7.50;3.85;;;14.50;99.90;;;;;;5050143;28;20020;-63
2022/09/29 11:51:58;;;;;;;8.30;3.83;;;14.50;99.90;;;;;;5046603;28;20531;-65
2022/09/29 11:54:29;;;;;;;7.07;3.78;;;14.60;99.90;;;;;;5047693;28;20028;-65
2022/09/29 11:56:59;;;;;;;7.72;3.97;;;14.70;99.90;;;;;;5051963;28;20049;-62
2022/09/29 11:59:25;;;;;;;5.63;3.38;;;14.60;99.90;;;;;;5017885;28;20096;-61
2022/09/29 12:01:57;;;;;;;10.07;4.53;;;14.70;99.90;;;;;;5023714;28;20029;-63
2022/09/29 12:04:59;;;;;;;7.70;4.05;;;14.50;99.90;;;;;;5028452;28;20061;-63
2022/09/29 12:07:44;;;;;;;9.45;3.92;;;14.60;99.90;;;;;;5029915;28;20113;-61
2022/09/29 12:10:43;;;;;;;30.27;19.45;;;14.60;99.90;;;;;;5029829;28;20096;-61
2022/09/29 12:13:13;;;;;;;9.68;4.55;;;14.40;99.90;;;;;;5029227;28;20452;-63
2022/09/29 12:16:06;;;;;;;10.68;4.03;;;14.50;99.90;;;;;;5028164;28;20135;-65
2022/09/29 12:19:05;;;;;;;11.15;3.42;;;14.50;99.90;;;;;;5027407;28;20095;-62
2022/09/29 12:21:36;;;;;;;7.05;3.65;;;14.60;99.90;;;;;;5028660;28;20034;-63
2022/09/29 12:24:09;;;;;;;8.95;3.50;;;14.70;99.90;;;;;;5028756;28;20021;-62
2022/09/29 12:26:36;;;;;;;5.10;2.95;;;14.80;99.90;;;;;;5026363;28;20029;-63
2022/09/29 12:29:05;;;;;;;5.00;3.15;;;15.20;99.90;;;;;;5026106;28;20029;-63
2022/09/29 12:31:36;;;;;;;6.38;3.15;;;15.50;99.90;;;;;;5028763;28;20077;-62
2022/09/29 12:34:32;;;;;;;8.73;4.05;;;15.80;99.90;;;;;;5028749;28;20021;-61
2022/09/29 12:37:10;;;;;;;7.47;3.40;;;16.30;99.90;;;;;;5028025;28;20029;-62
2022/09/29 12:39:39;;;;;;;10.38;3.97;;;16.70;99.90;;;;;;5028321;28;20028;-62
2022/09/29 12:42:12;;;;;;;9.93;4.03;;;17.10;99.90;;;;;;5026716;28;20029;-62
2022/09/29 12:44:49;;;;;;;8.82;3.65;;;17.20;99.90;;;;;;5031405;28;20023;-63
2022/09/29 12:47:55;;;;;;;6.63;3.40;;;17.40;99.90;;;;;;5031506;28;20025;-61
2022/09/29 12:50:31;;;;;;;5.88;3.45;;;17.60;99.90;;;;;;5031681;28;20037;-65
2022/09/29 12:53:07;;;;;;;5.75;2.97;;;17.70;99.90;;;;;;5030734;28;20093;-63
2022/09/29 12:55:43;;;;;;;11.75;3.83;;;17.80;99.90;;;;;;5034941;28;20444;-63
2022/09/29 12:58:18;;;;;;;7.68;3.40;;;17.60;99.90;;;;;;5049373;28;20059;-61
2022/09/29 13:00:50;;;;;;;8.48;3.05;;;17.20;99.90;;;;;;5035414;28;20508;-60
2022/09/29 13:03:32;;;;;;;5.85;2.72;;;17.00;99.90;;;;;;5032669;28;20029;-62
2022/09/29 13:06:19;;;;;;;6.40;2.88;;;16.80;99.90;;;;;;5032725;28;20072;-61